Time;durP1;ratioP1;P1;durP2;ratioP2;P2;SDS_P1;SDS_P2;PMS_P1;PMS_P2;Temp;Humidity;BMP_temperature;BMP_pressure;BME280_temperature;BME280_humidity;BME280_pressure;Samples;Min_cycle;Max_cycle;Signal;HPM_P1;HPM_P2
2022/12/25 00:01:26;;;;;;;77.20;21.60;;;;;;;7.04;100.00;101365.38;5092478;28;20020;-49
2022/12/25 00:03:52;;;;;;;98.28;22.40;;;;;;;7.06;100.00;101353.50;5092529;28;20032;-48
2022/12/25 00:06:18;;;;;;;78.85;20.83;;;;;;;7.07;100.00;101350.16;5092896;28;20426;-50
2022/12/25 00:08:44;;;;;;;92.50;22.92;;;;;;;7.07;100.00;101345.00;5092141;28;20024;-49
2022/12/25 00:11:14;;;;;;;83.78;21.30;;;;;;;7.05;100.00;101347.50;5093130;28;20016;-50
2022/12/25 00:13:41;;;;;;;73.80;20.90;;;;;;;7.07;100.00;101339.88;5092595;28;20059;-49
2022/12/25 00:16:21;;;;;;;90.53;22.10;;;;;;;7.09;100.00;101349.41;5093791;28;20098;-46
2022/12/25 00:18:47;;;;;;;82.07;22.20;;;;;;;7.10;100.00;101350.28;5099378;28;20387;-49
2022/12/25 00:21:13;;;;;;;85.53;22.25;;;;;;;7.12;100.00;101350.41;5099773;28;20027;-45
2022/12/25 00:23:39;;;;;;;86.97;21.08;;;;;;;7.14;100.00;101343.66;5098740;28;20035;-49
2022/12/25 00:26:07;;;;;;;88.93;22.48;;;;;;;7.14;100.00;101352.22;5099492;28;20035;-49
2022/12/25 00:28:34;;;;;;;92.95;22.92;;;;;;;7.15;100.00;101348.84;5099134;28;20028;-50
2022/12/25 00:31:03;;;;;;;85.90;21.03;;;;;;;7.14;100.00;101347.09;5098784;28;20484;-49
2022/12/25 00:33:29;;;;;;;83.40;21.45;;;;;;;7.19;100.00;101350.78;5099006;28;20027;-50
2022/12/25 00:35:58;;;;;;;78.03;21.02;;;;;;;7.19;100.00;101350.78;5099132;28;20035;-48
2022/12/25 00:38:24;;;;;;;83.75;23.30;;;;;;;7.21;100.00;101348.28;5098963;28;20027;-49
2022/12/25 00:40:50;;;;;;;84.88;21.48;;;;;;;7.22;100.00;101345.81;5099247;28;20032;-50
2022/12/25 00:43:16;;;;;;;85.85;22.33;;;;;;;7.23;100.00;101345.00;5098572;28;20398;-49
2022/12/25 00:45:41;;;;;;;82.50;21.40;;;;;;;7.24;100.00;101344.22;5099077;28;20521;-49
2022/12/25 00:48:06;;;;;;;82.70;22.67;;;;;;;7.24;100.00;101339.09;5099282;28;20028;-50
2022/12/25 00:50:32;;;;;;;80.55;22.15;;;;;;;7.29;100.00;101335.88;5098442;28;20391;-48
2022/12/25 00:52:57;;;;;;;86.60;23.23;;;;;;;7.29;100.00;101330.75;5099219;28;20040;-47
2022/12/25 00:55:22;;;;;;;78.03;21.52;;;;;;;7.30;100.00;101337.63;5099295;28;20070;-47
2022/12/25 00:57:47;;;;;;;80.13;23.13;;;;;;;7.31;100.00;101335.16;5098135;28;20071;-49
2022/12/25 01:00:13;;;;;;;78.95;22.85;;;;;;;7.32;100.00;101336.00;5099327;28;20077;-48
2022/12/25 01:02:39;;;;;;;75.68;22.98;;;;;;;7.31;100.00;101329.13;5098651;28;20058;-48
2022/12/25 01:05:05;;;;;;;75.85;22.55;;;;;;;7.33;100.00;101336.09;5098626;28;20382;-49
2022/12/25 01:07:30;;;;;;;83.63;23.40;;;;;;;7.32;100.00;101331.78;5099020;28;20046;-49
2022/12/25 01:12:41;;;;;;;82.30;24.27;;;;;;;7.32;100.00;101330.88;5098227;28;20090;-48
2022/12/25 01:15:08;;;;;;;95.60;23.48;;;;;;;7.32;100.00;101326.66;5099214;28;20016;-49
2022/12/25 01:17:34;;;;;;;80.40;24.83;;;;;;;7.33;100.00;101327.53;5099025;28;20028;-49
2022/12/25 01:20:00;;;;;;;81.18;24.50;;;;;;;7.32;100.00;101323.19;5098489;28;20023;-49
2022/12/25 01:22:25;;;;;;;83.80;24.77;;;;;;;7.29;100.00;101316.22;5099297;28;20028;-49
2022/12/25 01:24:50;;;;;;;90.93;25.50;;;;;;;7.29;100.00;101325.63;5098442;28;20076;-48
2022/12/25 01:27:16;;;;;;;81.10;24.75;;;;;;;7.32;100.00;101325.75;5097687;28;20024;-49
2022/12/25 01:29:41;;;;;;;84.80;25.25;;;;;;;7.33;100.00;101337.78;5094936;28;20043;-48
2022/12/25 01:32:06;;;;;;;84.63;24.92;;;;;;;7.32;100.00;101346.28;5095671;28;20028;-50
2022/12/25 01:34:32;;;;;;;80.38;25.30;;;;;;;7.34;100.00;101349.81;5095187;28;20062;-49
2022/12/25 01:36:57;;;;;;;79.88;24.85;;;;;;;7.35;100.00;101352.44;5095751;28;20024;-49
2022/12/25 01:39:22;;;;;;;72.20;24.73;;;;;;;7.35;100.00;101349.88;5095391;28;20027;-49
2022/12/25 01:41:48;;;;;;;77.80;24.15;;;;;;;7.38;100.00;101346.59;5094804;28;20032;-48
2022/12/25 01:44:13;;;;;;;79.28;25.73;;;;;;;7.39;100.00;101346.66;5095525;28;20032;-49
2022/12/25 01:46:39;;;;;;;86.93;25.00;;;;;;;7.40;100.00;101345.00;5094623;28;20031;-49
2022/12/25 01:49:10;;;;;;;79.18;25.73;;;;;;;7.41;100.00;101346.72;5095376;28;20281;-49
2022/12/25 01:51:45;;;;;;;79.00;25.73;;;;;;;7.46;100.00;101358.09;5095215;28;20062;-48
2022/12/25 01:54:16;;;;;;;89.95;24.65;;;;;;;7.48;100.00;101353.94;5094541;28;20119;-45
2022/12/25 01:56:44;;;;;;;78.28;25.83;;;;;;;7.45;100.00;101353.81;5095004;28;20020;-47
2022/12/25 01:59:11;;;;;;;88.28;24.63;;;;;;;7.48;100.00;101359.06;5095404;28;20088;-46
2022/12/25 02:01:36;;;;;;;77.32;24.02;;;;;;;7.47;100.00;101359.88;5094406;28;20020;-48
2022/12/25 02:04:11;;;;;;;68.43;23.40;;;;;;;7.48;100.00;101364.19;5095105;28;20055;-48
2022/12/25 02:06:37;;;;;;;74.07;25.10;;;;;;;7.49;100.00;101362.50;5094876;28;20049;-50
2022/12/25 02:09:02;;;;;;;72.78;22.92;;;;;;;7.51;100.00;101368.59;5094278;28;20110;-48
2022/12/25 02:14:11;;;;;;;73.15;23.58;;;;;;;7.51;100.00;101361.78;5094740;28;20055;-50
2022/12/25 02:16:42;;;;;;;62.50;22.88;;;;;;;7.54;100.00;101364.50;5094165;28;20468;-49
2022/12/25 02:19:41;;;;;;;72.68;23.40;;;;;;;7.56;100.00;101367.16;5094894;28;20032;-49
2022/12/25 02:22:16;;;;;;;72.28;22.33;;;;;;;7.58;100.00;101375.81;5094240;28;20058;-49
2022/12/25 02:25:02;;;;;;;73.85;22.52;;;;;;;7.59;100.00;101372.41;5094620;28;20034;-48
2022/12/25 02:27:51;;;;;;;66.47;22.48;;;;;;;7.61;100.00;101381.09;5094398;28;20367;-45
2022/12/25 02:30:16;;;;;;;71.25;22.30;;;;;;;7.61;100.00;101370.81;5093898;28;20102;-49
2022/12/25 02:32:49;;;;;;;62.63;22.40;;;;;;;7.63;100.00;101373.47;5094137;28;20444;-49
2022/12/25 02:35:29;;;;;;;68.15;22.05;;;;;;;7.66;100.00;101371.06;5094409;28;20071;-48
2022/12/25 02:38:03;;;;;;;58.35;21.25;;;;;;;7.65;100.00;101356.47;5093971;28;20082;-50
2022/12/25 02:40:43;;;;;;;60.28;20.92;;;;;;;7.66;100.00;101360.81;5094119;28;20016;-49
2022/12/25 03:08:52;;;;;;;62.65;20.98;;;;;;;7.56;100.00;101306.47;5093878;28;20086;-50
2022/12/25 03:11:30;;;;;;;57.40;21.30;;;;;;;7.55;100.00;101294.47;5093263;28;20024;-50
2022/12/25 03:16:52;;;;;;;57.38;21.63;;;;;;;7.48;100.00;101266.75;5093892;28;20383;-49
2022/12/25 03:27:48;;;;;;;54.63;20.67;;;;;;;7.35;100.00;101264.38;5093236;28;20532;-47
2022/12/25 03:33:08;;;;;;;54.45;20.52;;;;;;;7.32;100.00;101261.66;5093038;28;20039;-44
2022/12/25 03:35:46;;;;;;;57.63;19.42;;;;;;;7.29;100.00;101256.38;5093418;28;20020;-46
2022/12/25 04:36:40;;;;;;;34.42;13.23;;;;;;;7.08;100.00;101252.81;5091976;28;20043;-48
2022/12/25 04:39:05;;;;;;;48.47;14.32;;;;;;;7.10;100.00;101247.75;5092675;28;20020;-49
2022/12/25 04:41:30;;;;;;;38.17;14.75;;;;;;;7.07;100.00;101261.31;5092087;28;20426;-48
2022/12/25 04:43:56;;;;;;;43.05;14.65;;;;;;;7.12;100.00;101253.84;5092250;28;20028;-49
2022/12/25 04:46:21;;;;;;;41.55;15.02;;;;;;;7.13;100.00;101258.19;5092573;28;20020;-49
2022/12/25 04:48:46;;;;;;;41.05;15.07;;;;;;;7.16;100.00;101249.78;5092110;28;20119;-50
2022/12/25 04:51:24;;;;;;;39.55;14.82;;;;;;;7.14;100.00;101247.13;5092208;28;20099;-49
2022/12/25 04:53:50;;;;;;;36.67;14.05;;;;;;;7.11;100.00;101244.41;5092324;28;20483;-50
2022/12/25 04:56:16;;;;;;;39.55;14.68;;;;;;;7.10;100.00;101247.75;5092393;28;20038;-49
2022/12/25 04:58:43;;;;;;;42.55;13.52;;;;;;;7.09;100.00;101246.91;5091747;28;20107;-49
2022/12/25 05:01:08;;;;;;;43.22;13.02;;;;;;;7.10;100.00;101237.50;5092664;28;20058;-47
2022/12/25 05:03:34;;;;;;;34.72;13.50;;;;;;;7.08;100.00;101244.25;5092656;28;20097;-49
2022/12/25 05:06:00;;;;;;;38.15;12.85;;;;;;;7.09;100.00;101239.19;5096569;28;20527;-50
2022/12/25 05:08:27;;;;;;;37.03;12.25;;;;;;;7.09;100.00;101243.47;5096323;28;20024;-48
2022/12/25 05:10:53;;;;;;;43.97;13.45;;;;;;;7.04;100.00;101247.47;5095849;28;20035;-45
2022/12/25 05:13:18;;;;;;;34.72;12.68;;;;;;;7.03;100.00;101240.59;5096425;28;20028;-46
2022/12/25 05:15:43;;;;;;;37.80;13.45;;;;;;;7.05;100.00;101228.72;5095886;28;20460;-47
2022/12/25 05:18:09;;;;;;;44.45;13.27;;;;;;;7.06;100.00;101233.03;5095413;28;20028;-50
2022/12/25 05:20:34;;;;;;;32.70;12.27;;;;;;;7.04;100.00;101234.66;5095871;28;20020;-49
2022/12/25 05:22:59;;;;;;;38.85;13.05;;;;;;;7.02;100.00;101231.13;5095966;28;20066;-50
2022/12/25 05:25:25;;;;;;;39.10;12.05;;;;;;;7.06;100.00;101236.50;5095312;28;20103;-50
2022/12/25 05:27:50;;;;;;;34.90;11.77;;;;;;;7.06;100.00;101228.81;5095631;28;20404;-48
2022/12/25 05:30:15;;;;;;;33.63;12.52;;;;;;;7.07;100.00;101216.88;5095926;28;20103;-48
2022/12/25 05:32:41;;;;;;;34.03;12.27;;;;;;;7.12;100.00;101214.53;5094793;28;20021;-46
2022/12/25 05:35:07;;;;;;;37.38;12.98;;;;;;;7.11;100.00;101208.50;5095758;28;20024;-49
2022/12/25 05:37:33;;;;;;;34.30;12.85;;;;;;;7.14;100.00;101206.13;5095023;28;20036;-50
2022/12/25 05:39:59;;;;;;;35.75;12.45;;;;;;;7.17;100.00;101193.44;5095320;28;20085;-49
2022/12/25 05:42:24;;;;;;;44.08;12.52;;;;;;;7.21;100.00;101194.47;5095607;28;20032;-49
2022/12/25 05:44:49;;;;;;;34.78;12.13;;;;;;;7.27;100.00;101204.16;5095269;28;20529;-48
2022/12/25 05:47:14;;;;;;;28.67;11.80;;;;;;;7.28;100.00;101195.66;5095064;28;20032;-48
2022/12/25 05:49:40;;;;;;;33.63;12.55;;;;;;;7.32;100.00;101213.84;5095160;28;20028;-47
2022/12/25 05:52:05;;;;;;;29.13;11.60;;;;;;;7.38;100.00;101203.84;5095033;28;20028;-49
2022/12/25 05:54:30;;;;;;;36.60;12.00;;;;;;;7.40;100.00;101211.66;5094784;28;20047;-49
2022/12/25 05:56:55;;;;;;;31.70;11.02;;;;;;;7.44;100.00;101205.84;5095452;28;20035;-48
2022/12/25 05:59:21;;;;;;;29.60;10.70;;;;;;;7.47;100.00;101207.69;5095265;28;20027;-48
2022/12/25 06:01:46;;;;;;;29.45;10.25;;;;;;;7.52;100.00;101206.22;5094445;28;20629;-50
2022/12/25 06:04:12;;;;;;;28.83;10.57;;;;;;;7.53;100.00;101192.59;5095009;28;20036;-48
2022/12/25 06:06:38;;;;;;;38.83;10.70;;;;;;;7.52;100.00;101201.09;5094413;28;20407;-50
2022/12/25 06:09:03;;;;;;;34.05;11.50;;;;;;;7.53;100.00;101196.03;5094480;28;20107;-48
2022/12/25 06:11:29;;;;;;;24.13;9.95;;;;;;;7.57;100.00;101195.38;5095026;28;20024;-49
2022/12/25 06:13:54;;;;;;;27.08;10.32;;;;;;;7.57;100.00;101192.78;5093599;28;20032;-49
2022/12/25 06:16:20;;;;;;;23.27;10.40;;;;;;;7.61;100.00;101200.66;5095017;28;20111;-48
2022/12/25 06:18:48;;;;;;;27.55;10.35;;;;;;;7.61;100.00;101200.66;5094642;28;20024;-47
2022/12/25 06:21:14;;;;;;;24.83;10.25;;;;;;;7.61;100.00;101196.38;5094052;28;20390;-47
2022/12/25 06:23:40;;;;;;;26.05;10.43;;;;;;;7.64;100.00;101170.88;5094738;28;20020;-47
2022/12/25 06:26:08;;;;;;;31.65;10.10;;;;;;;7.64;100.00;101165.75;5094691;28;20097;-47
2022/12/25 06:28:34;;;;;;;28.40;10.00;;;;;;;7.64;100.00;101165.75;5093711;28;20071;-48
2022/12/25 06:31:08;;;;;;;28.85;9.90;;;;;;;7.64;100.00;101160.59;5094889;28;20434;-48
2022/12/25 06:33:33;;;;;;;28.13;10.40;;;;;;;7.66;100.00;101158.13;5094213;28;20089;-44
2022/12/25 06:36:03;;;;;;;26.45;9.27;;;;;;;7.66;100.00;101159.00;5094080;28;20028;-47
2022/12/25 06:38:29;;;;;;;25.50;8.50;;;;;;;7.67;100.00;101155.63;5094445;28;20035;-46
2022/12/25 06:40:54;;;;;;;25.45;8.45;;;;;;;7.69;100.00;101145.44;5094172;28;20020;-46
2022/12/25 06:43:19;;;;;;;29.75;7.78;;;;;;;7.68;100.00;101142.00;5094108;28;20027;-45
2022/12/25 06:45:46;;;;;;;24.50;8.00;;;;;;;7.69;100.00;101124.91;5094175;28;20052;-46
2022/12/25 06:48:11;;;;;;;24.00;8.82;;;;;;;7.70;100.00;101139.50;5094225;28;20463;-47
2022/12/25 06:50:41;;;;;;;25.85;8.95;;;;;;;7.71;100.00;101139.56;5093466;28;20077;-44
2022/12/25 06:53:07;;;;;;;24.70;8.00;;;;;;;7.72;100.00;101136.22;5094067;28;20483;-47
2022/12/25 06:55:32;;;;;;;25.05;8.30;;;;;;;7.73;100.00;101119.13;5093798;28;20145;-46
2022/12/25 06:57:57;;;;;;;26.10;8.80;;;;;;;7.73;100.00;101107.19;5093815;28;20016;-47
2022/12/25 07:00:22;;;;;;;33.00;9.48;;;;;;;7.72;100.00;101097.72;5094233;28;20357;-46
2022/12/25 07:02:48;;;;;;;21.83;8.40;;;;;;;7.73;100.00;101106.28;5093444;28;20054;-45
2022/12/25 07:05:13;;;;;;;32.22;8.95;;;;;;;7.71;100.00;101105.34;5093448;28;20027;-47
2022/12/25 07:07:39;;;;;;;26.90;8.75;;;;;;;7.71;100.00;101105.34;5093908;28;20103;-47
2022/12/25 07:10:04;;;;;;;31.65;8.95;;;;;;;7.70;100.00;101104.47;5093490;28;20108;-43
2022/12/25 07:12:30;;;;;;;22.90;8.90;;;;;;;7.68;100.00;101100.06;5093400;28;20032;-47
2022/12/25 07:14:55;;;;;;;26.17;9.90;;;;;;;7.68;100.00;101115.47;5093957;28;20352;-46
2022/12/25 07:17:21;;;;;;;30.85;9.40;;;;;;;7.65;100.00;101123.03;5093024;28;20062;-48
2022/12/25 07:19:47;;;;;;;26.55;9.27;;;;;;;7.64;100.00;101124.69;5093372;28;20120;-48
2022/12/25 07:22:13;;;;;;;25.20;8.82;;;;;;;7.63;100.00;101128.09;5093953;28;20545;-47
2022/12/25 07:24:38;;;;;;;27.85;10.35;;;;;;;7.64;100.00;101128.97;5092797;28;20106;-46
2022/12/25 07:27:04;;;;;;;28.13;10.30;;;;;;;7.64;100.00;101139.22;5093005;28;20066;-48
2022/12/25 07:29:29;;;;;;;27.52;9.90;;;;;;;7.63;100.00;101147.72;5093365;28;20020;-47
2022/12/25 07:31:55;;;;;;;23.17;10.70;;;;;;;7.63;100.00;101147.72;5092794;28;20074;-45
2022/12/25 07:34:21;;;;;;;27.58;10.80;;;;;;;7.61;100.00;101155.34;5093364;28;20032;-47
2022/12/25 07:36:47;;;;;;;31.20;9.73;;;;;;;7.60;100.00;101152.72;5093093;28;20016;-47
2022/12/25 07:39:12;;;;;;;27.70;10.15;;;;;;;7.60;100.00;101152.72;5092979;28;20418;-47
2022/12/25 07:41:37;;;;;;;26.35;9.95;;;;;;;7.58;100.00;101150.94;5093125;28;20032;-46
2022/12/25 07:44:03;;;;;;;32.58;11.85;;;;;;;7.58;100.00;101127.00;5093051;28;20037;-46
2022/12/25 07:46:28;;;;;;;28.48;11.30;;;;;;;7.53;100.00;101098.56;5092486;28;20058;-46
2022/12/25 07:48:54;;;;;;;30.48;11.68;;;;;;;7.55;100.00;101107.22;5093378;28;20027;-47
2022/12/25 07:51:19;;;;;;;25.27;10.95;;;;;;;7.53;100.00;101116.50;5093123;28;20081;-47
2022/12/25 07:53:45;;;;;;;40.67;12.10;;;;;;;7.51;100.00;101115.56;5092465;28;20024;-47
2022/12/25 07:56:19;;;;;;;29.63;12.20;;;;;;;7.47;100.00;101126.47;5093311;28;20028;-45
2022/12/25 07:58:45;;;;;;;27.95;11.57;;;;;;;7.46;100.00;101141.81;5092750;28;20119;-48
2022/12/25 08:01:11;;;;;;;26.85;12.30;;;;;;;7.42;100.00;101156.16;5092369;28;20047;-47
2022/12/25 08:03:37;;;;;;;26.17;11.80;;;;;;;7.43;100.00;101175.88;5092409;28;20047;-47
2022/12/25 08:06:07;;;;;;;30.02;11.73;;;;;;;7.45;100.00;101174.28;5092830;28;20028;-47
2022/12/25 08:08:34;;;;;;;32.47;12.25;;;;;;;7.46;100.00;101170.88;5092054;28;20368;-47
2022/12/25 08:11:00;;;;;;;26.98;11.45;;;;;;;7.49;100.00;101173.63;5092837;28;20399;-48
2022/12/25 08:13:25;;;;;;;27.52;11.43;;;;;;;7.49;100.00;101171.03;5092075;28;20024;-46
2022/12/25 08:16:01;;;;;;;31.92;11.38;;;;;;;7.51;100.00;101174.53;5092594;28;20440;-47
2022/12/25 08:18:28;;;;;;;32.28;11.50;;;;;;;7.50;100.00;101177.94;5093109;28;20024;-48
2022/12/25 08:20:53;;;;;;;26.67;10.68;;;;;;;7.48;100.00;101194.06;5092293;28;20024;-47
2022/12/25 08:23:18;;;;;;;30.38;11.82;;;;;;;7.48;100.00;101205.19;5092891;28;20502;-48
2022/12/25 08:25:43;;;;;;;28.27;11.55;;;;;;;7.49;100.00;101196.69;5092525;28;20020;-45
2022/12/25 08:28:09;;;;;;;31.77;12.15;;;;;;;7.48;100.00;101187.22;5092052;28;20477;-43
2022/12/25 08:30:38;;;;;;;26.08;12.43;;;;;;;7.47;100.00;101171.78;5092395;28;20085;-47
2022/12/25 08:33:03;;;;;;;30.38;11.60;;;;;;;7.49;100.00;101176.19;5092633;28;20024;-47
2022/12/25 08:35:28;;;;;;;27.35;11.75;;;;;;;7.50;100.00;101183.06;5092078;28;20046;-47
2022/12/25 08:37:53;;;;;;;33.47;12.02;;;;;;;7.50;100.00;101177.94;5094831;28;20016;-47
2022/12/25 08:40:19;;;;;;;30.33;11.38;;;;;;;7.50;100.00;101175.38;5096735;28;20099;-47
2022/12/25 08:42:44;;;;;;;31.60;13.15;;;;;;;7.49;100.00;101173.63;5095828;28;20032;-47
2022/12/25 08:45:10;;;;;;;27.77;11.82;;;;;;;7.51;100.00;101189.94;5096648;28;20077;-47
2022/12/25 08:47:35;;;;;;;22.55;12.32;;;;;;;7.50;100.00;101183.06;5096318;28;20032;-43
2022/12/25 08:50:00;;;;;;;38.10;13.30;;;;;;;7.49;100.00;101182.97;5096364;28;20027;-47
2022/12/25 08:52:27;;;;;;;28.98;12.10;;;;;;;7.48;100.00;101191.50;5096708;28;20130;-47
2022/12/25 08:54:53;;;;;;;32.88;12.68;;;;;;;7.49;100.00;101180.41;5096340;28;20116;-45
2022/12/25 08:57:18;;;;;;;29.45;12.93;;;;;;;7.48;100.00;101179.53;5096003;28;20115;-48
2022/12/25 08:59:43;;;;;;;34.90;13.45;;;;;;;7.49;100.00;101175.28;5096196;28;20028;-45
2022/12/25 09:02:11;;;;;;;31.70;13.75;;;;;;;7.46;100.00;101168.31;5096142;28;20371;-47
2022/12/25 09:04:36;;;;;;;27.73;13.15;;;;;;;7.46;100.00;101160.63;5095653;28;20028;-46
2022/12/25 09:07:01;;;;;;;40.75;15.35;;;;;;;7.47;100.00;101162.38;5096524;28;20020;-46
2022/12/25 09:09:27;;;;;;;36.90;14.70;;;;;;;7.44;100.00;101157.13;5096119;28;20441;-47
2022/12/25 09:11:53;;;;;;;60.70;30.13;;;;;;;7.45;100.00;101164.03;5095837;28;20028;-44
2022/12/25 09:14:18;;;;;;;38.10;16.77;;;;;;;7.47;100.00;101157.25;5095889;28;20115;-46
2022/12/25 09:16:44;;;;;;;34.67;17.63;;;;;;;7.47;100.00;101166.66;5095193;28;20379;-47
2022/12/25 09:19:09;;;;;;;38.13;21.05;;;;;;;7.48;100.00;101178.69;5095982;28;20024;-45
2022/12/25 09:21:35;;;;;;;37.95;18.92;;;;;;;7.50;100.00;101187.31;5095770;28;20024;-49
2022/12/25 09:24:02;;;;;;;45.92;23.67;;;;;;;7.50;100.00;101182.16;5095302;28;20510;-45
2022/12/25 09:26:27;;;;;;;57.88;24.15;;;;;;;7.52;100.00;101183.13;5095835;28;20089;-43
2022/12/25 09:28:53;;;;;;;48.22;24.10;;;;;;;7.50;100.00;101175.38;5095948;28;20441;-46
2022/12/25 09:31:20;;;;;;;46.40;21.65;;;;;;;7.49;100.00;101181.31;5095200;28;20467;-48
2022/12/25 09:33:45;;;;;;;45.30;19.02;;;;;;;7.52;100.00;101150.66;5095352;28;20490;-45
2022/12/25 09:36:10;;;;;;;37.38;18.92;;;;;;;7.50;100.00;101167.69;5095691;28;20027;-49
2022/12/25 09:38:36;;;;;;;55.42;25.88;;;;;;;7.50;100.00;101177.94;5094950;28;20530;-48
2022/12/25 09:41:06;;;;;;;89.88;45.67;;;;;;;7.49;100.00;101153.09;5095570;28;20387;-48
2022/12/25 09:43:38;;;;;;;59.05;22.40;;;;;;;7.50;100.00;101138.56;5095009;28;20068;-49
2022/12/25 09:46:12;;;;;;;42.97;19.60;;;;;;;7.49;100.00;101147.97;5094903;28;20458;-48
2022/12/25 09:48:41;;;;;;;47.53;22.10;;;;;;;7.48;100.00;101153.91;5094693;28;20051;-49
2022/12/25 09:51:11;;;;;;;40.75;19.00;;;;;;;7.46;100.00;101147.81;5095257;28;20031;-49
2022/12/25 09:53:43;;;;;;;45.85;20.45;;;;;;;7.46;100.00;101144.38;5094373;28;20033;-46
2022/12/25 09:56:12;;;;;;;44.50;21.65;;;;;;;7.44;100.00;101135.72;5095538;28;20016;-48
2022/12/25 09:58:38;;;;;;;47.83;23.40;;;;;;;7.43;100.00;101116.91;5094722;28;20016;-48
2022/12/25 10:01:12;;;;;;;43.28;22.50;;;;;;;7.48;100.00;101133.38;5094833;28;20039;-48
2022/12/25 10:03:37;;;;;;;41.30;19.42;;;;;;;7.49;100.00;101134.25;5094776;28;20059;-45
2022/12/25 10:06:12;;;;;;;45.63;21.47;;;;;;;7.48;100.00;101130.81;5094455;28;20024;-44
2022/12/25 10:08:49;;;;;;;45.80;23.08;;;;;;;7.48;100.00;101123.13;5095052;28;20274;-48
2022/12/25 10:11:41;;;;;;;40.40;18.75;;;;;;;7.51;100.00;101128.38;5094994;28;20024;-49
2022/12/25 10:14:28;;;;;;;38.72;19.98;;;;;;;7.55;100.00;101109.78;5094444;28;20031;-49
2022/12/25 10:17:20;;;;;;;40.35;18.63;;;;;;;7.52;100.00;101112.19;5095173;28;20107;-48
2022/12/25 10:20:07;;;;;;;38.22;18.67;;;;;;;7.53;100.00;101103.69;5080095;28;20093;-50
2022/12/25 10:22:32;;;;;;;38.20;18.67;;;;;;;7.53;100.00;101103.69;5094654;28;20035;-47
2022/12/25 10:24:59;;;;;;;42.33;17.87;;;;;;;7.52;100.00;101114.75;5094736;28;20420;-49
2022/12/25 10:27:37;;;;;;;41.75;18.75;;;;;;;7.52;100.00;101103.63;5093885;28;20820;-49
2022/12/25 10:30:13;;;;;;;40.65;17.77;;;;;;;7.51;100.00;101101.88;5094871;28;20031;-49
2022/12/25 10:32:39;;;;;;;37.92;18.20;;;;;;;7.50;100.00;101100.09;5094239;28;20107;-48
2022/12/25 10:35:04;;;;;;;44.22;19.15;;;;;;;7.50;100.00;101106.13;5094024;28;20103;-46
2022/12/25 10:37:30;;;;;;;34.85;17.30;;;;;;;7.46;100.00;101106.78;5094175;28;20028;-48
2022/12/25 10:39:56;;;;;;;41.45;17.17;;;;;;;7.45;100.00;101097.34;5094541;28;20356;-47
2022/12/25 10:42:42;;;;;;;42.85;17.80;;;;;;;7.46;100.00;101096.50;5094037;28;20020;-48
2022/12/25 10:45:08;;;;;;;37.45;16.55;;;;;;;7.40;100.00;101103.94;5094690;28;20032;-50
2022/12/25 10:47:38;;;;;;;34.28;17.35;;;;;;;7.38;100.00;101101.28;5093817;28;20081;-48
2022/12/25 10:50:24;;;;;;;46.50;18.50;;;;;;;7.41;100.00;101100.53;5093687;28;20391;-49
2022/12/25 10:52:58;;;;;;;37.67;17.50;;;;;;;7.42;100.00;101094.63;5094055;28;20031;-49
2022/12/25 10:55:24;;;;;;;36.22;17.35;;;;;;;7.45;100.00;101074.25;5093415;28;20035;-49
2022/12/25 10:57:49;;;;;;;37.08;17.08;;;;;;;7.44;100.00;101058.78;5093911;28;20032;-47
2022/12/25 11:00:19;;;;;;;38.08;18.52;;;;;;;7.45;100.00;101056.31;5093855;28;20020;-47
2022/12/25 11:02:45;;;;;;;39.63;18.95;;;;;;;7.46;100.00;101046.91;5093193;28;20093;-48
2022/12/25 11:05:20;;;;;;;43.60;19.23;;;;;;;7.46;100.00;101046.91;5093862;28;20024;-47
2022/12/25 11:07:50;;;;;;;51.75;21.05;;;;;;;7.45;100.00;101055.41;5093510;28;20052;-48
2022/12/25 11:10:21;;;;;;;68.10;35.60;;;;;;;7.48;100.00;101061.56;5093424;28;20031;-48
2022/12/25 11:12:46;;;;;;;50.92;23.83;;;;;;;7.48;100.00;101048.75;5093531;28;20051;-49
2022/12/25 11:15:38;;;;;;;41.42;21.00;;;;;;;7.52;100.00;101048.06;5093663;28;20471;-45
2022/12/25 11:18:25;;;;;;;41.50;19.40;;;;;;;7.54;100.00;101049.03;5093347;28;20023;-49
2022/12/25 11:20:51;;;;;;;39.53;20.15;;;;;;;7.51;100.00;101036.03;5093334;28;20024;-46
2022/12/25 11:23:19;;;;;;;39.88;19.13;;;;;;;7.48;100.00;101041.06;5092840;28;20544;-47
2022/12/25 11:25:53;;;;;;;38.80;19.08;;;;;;;7.48;100.00;101024.81;5093249;28;20495;-48
2022/12/25 11:28:18;;;;;;;39.58;20.33;;;;;;;7.46;100.00;101027.28;5093436;28;20078;-45
2022/12/25 11:30:49;;;;;;;43.72;20.48;;;;;;;7.46;100.00;101009.31;5092822;28;20047;-48
2022/12/25 11:33:16;;;;;;;41.15;19.98;;;;;;;7.46;100.00;100996.50;5093468;28;20424;-49
2022/12/25 11:35:46;;;;;;;45.25;21.40;;;;;;;7.45;100.00;100997.34;5092800;28;20468;-44
2022/12/25 11:38:11;;;;;;;47.20;20.63;;;;;;;7.44;100.00;100987.88;5093015;28;20043;-49
2022/12/25 11:40:48;;;;;;;48.70;21.20;;;;;;;7.45;100.00;100994.78;5093182;28;20391;-48
2022/12/25 11:43:17;;;;;;;42.75;20.73;;;;;;;7.44;100.00;100993.00;5092946;28;20444;-48
2022/12/25 11:45:51;;;;;;;44.75;21.80;;;;;;;7.43;100.00;100986.13;5092501;28;20032;-47
2022/12/25 11:48:21;;;;;;;43.35;21.52;;;;;;;7.43;100.00;100980.13;5093277;28;20024;-49
2022/12/25 11:50:52;;;;;;;50.03;22.08;;;;;;;7.41;100.00;100987.72;5092851;28;20035;-46
2022/12/25 11:53:24;;;;;;;47.30;21.25;;;;;;;7.41;100.00;100987.72;5092442;28;20024;-50
2022/12/25 11:56:01;;;;;;;43.40;21.20;;;;;;;7.41;100.00;100974.91;5093102;28;20032;-49
2022/12/25 11:58:37;;;;;;;49.55;23.02;;;;;;;7.43;100.00;100975.00;5092510;28;20024;-46
2022/12/25 12:01:14;;;;;;;48.35;22.50;;;;;;;7.42;100.00;100966.41;5093006;28;20028;-48
2022/12/25 12:03:40;;;;;;;51.70;23.00;;;;;;;7.42;100.00;100953.59;5092474;28;20089;-47
2022/12/25 12:06:11;;;;;;;48.22;22.67;;;;;;;7.43;100.00;100960.47;5092674;28;20032;-48
2022/12/25 12:08:37;;;;;;;46.88;23.38;;;;;;;7.48;100.00;100959.00;5106911;28;20111;-48
2022/12/25 12:11:20;;;;;;;48.55;25.80;;;;;;;7.51;100.00;100966.81;5113237;28;20048;-49
2022/12/25 12:13:59;;;;;;;55.72;27.05;;;;;;;7.52;100.00;100967.69;5111962;28;20470;-49
2022/12/25 12:16:25;;;;;;;48.50;26.02;;;;;;;7.53;100.00;100972.03;5113379;28;20102;-49
2022/12/25 12:18:50;;;;;;;53.33;26.60;;;;;;;7.51;100.00;100966.81;5112750;28;20038;-49
2022/12/25 12:21:27;;;;;;;64.43;31.38;;;;;;;7.53;100.00;100967.75;5112635;28;20020;-49
2022/12/25 12:24:08;;;;;;;72.70;32.80;;;;;;;7.53;100.00;100972.88;5113109;28;20027;-49
2022/12/25 12:26:39;;;;;;;70.03;40.08;;;;;;;7.54;100.00;100964.38;5112567;28;20024;-46
2022/12/25 12:29:07;;;;;;;69.63;39.55;;;;;;;7.53;100.00;100967.75;5113226;28;20057;-49
2022/12/25 12:31:51;;;;;;;67.05;38.22;;;;;;;7.57;100.00;100964.50;5112795;28;20035;-49
2022/12/25 12:34:24;;;;;;;72.72;40.35;;;;;;;7.54;100.00;100951.56;5112647;28;20028;-49
2022/12/25 12:36:56;;;;;;;64.47;38.58;;;;;;;7.55;100.00;100937.94;5112931;28;20050;-47
2022/12/25 12:39:32;;;;;;;67.65;38.53;;;;;;;7.57;100.00;100933.72;5112974;28;20031;-48
2022/12/25 12:41:57;;;;;;;72.63;37.38;;;;;;;7.59;100.00;100920.97;5112541;28;20052;-49
2022/12/25 12:44:29;;;;;;;68.18;37.70;;;;;;;7.58;100.00;100917.53;5112926;28;20067;-48
2022/12/25 12:46:56;;;;;;;64.47;35.67;;;;;;;7.62;100.00;100915.09;5112952;28;20030;-49
2022/12/25 12:49:29;;;;;;;66.38;36.38;;;;;;;7.63;100.00;100916.84;5112388;28;20391;-50
2022/12/25 12:52:05;;;;;;;68.95;37.40;;;;;;;7.63;100.00;100919.41;5094746;28;20522;-50
2022/12/25 12:54:30;;;;;;;66.05;37.67;;;;;;;7.61;100.00;100926.19;5112356;28;20470;-48
2022/12/25 12:56:58;;;;;;;71.90;37.85;;;;;;;7.61;100.00;100913.38;5112276;28;20023;-45
2022/12/25 12:59:25;;;;;;;65.95;38.20;;;;;;;7.58;100.00;100917.53;5112965;28;20058;-44